createdAt,value
2018-08-19T00:00:16.401Z,18.18
2018-08-19T00:01:25.981Z,18.18
2018-08-19T00:02:35.283Z,18.18
2018-08-19T00:03:44.858Z,18.08
2018-08-19T00:04:54.431Z,18.08
2018-08-19T00:06:03.737Z,17.99
2018-08-19T00:07:13.305Z,17.97
2018-08-19T00:08:23.416Z,17.97
2018-08-19T00:09:33.532Z,17.93
2018-08-19T00:10:43.372Z,17.81
2018-08-19T00:11:53.215Z,17.92
2018-08-19T00:13:03.068Z,17.71
2018-08-19T00:14:12.914Z,17.77
2018-08-19T00:15:22.757Z,17.75
2018-08-19T00:16:32.328Z,17.78
2018-08-19T00:17:41.900Z,17.78
2018-08-19T00:18:51.487Z,17.81
2018-08-19T00:20:01.056Z,17.92
2018-08-19T00:21:10.894Z,17.87
2018-08-19T00:22:19.945Z,17.87
2018-08-19T00:23:29.796Z,17.74
2018-08-19T00:24:39.929Z,17.79
2018-08-19T00:25:49.228Z,17.89
2018-08-19T00:26:59.073Z,17.81
2018-08-19T00:28:08.911Z,17.81
2018-08-19T00:29:19.092Z,17.77
2018-08-19T00:30:28.667Z,17.72
2018-08-19T00:31:38.787Z,17.75
2018-08-19T00:32:48.365Z,17.75
2018-08-19T00:33:57.402Z,17.63
2018-08-19T00:35:07.299Z,17.74
2018-08-19T00:36:16.867Z,17.7
2018-08-19T00:37:26.708Z,17.71
2018-08-19T00:38:36.010Z,17.75
2018-08-19T00:39:45.855Z,17.7
2018-08-19T00:40:56.032Z,17.78
2018-08-19T00:42:06.154Z,17.75
2018-08-19T00:43:16.006Z,17.7
2018-08-19T00:44:25.586Z,17.63
2018-08-19T00:45:35.714Z,17.55
2018-08-19T00:46:45.557Z,17.58
2018-08-19T00:47:55.402Z,17.56
2018-08-19T00:49:04.707Z,17.59
2018-08-19T00:50:14.556Z,17.56
2018-08-19T00:51:24.406Z,17.62
2018-08-19T00:52:34.250Z,17.55
2018-08-19T00:53:43.554Z,17.54
2018-08-19T00:54:53.126Z,17.56
2018-08-19T00:56:02.439Z,17.56
2018-08-19T00:57:12.017Z,17.59
2018-08-19T00:58:21.856Z,17.63
2018-08-19T00:59:31.971Z,17.68
2018-08-19T01:00:41.815Z,17.66
2018-08-19T01:01:51.664Z,17.7
2018-08-19T01:03:01.508Z,17.72
2018-08-19T01:04:11.625Z,17.66
2018-08-19T01:05:20.932Z,17.7
2018-08-19T01:06:30.231Z,17.66
2018-08-19T01:07:39.799Z,17.64
2018-08-19T01:08:49.368Z,17.66
2018-08-19T01:09:58.994Z,17.64
2018-08-19T01:11:08.572Z,17.71
2018-08-19T01:12:18.678Z,17.71
2018-08-19T01:13:28.521Z,17.77
2018-08-19T01:14:37.824Z,17.75
2018-08-19T01:15:47.133Z,17.74
2018-08-19T01:16:56.707Z,17.72
2018-08-19T01:18:06.294Z,17.81
2018-08-19T01:19:16.142Z,17.72
2018-08-19T01:20:25.991Z,17.78
2018-08-19T01:21:36.108Z,17.78
2018-08-19T01:22:45.685Z,17.74
2018-08-19T01:23:55.367Z,17.78
2018-08-19T01:25:04.675Z,17.77
2018-08-19T01:26:14.249Z,17.74
2018-08-19T01:27:23.557Z,17.81
2018-08-19T01:28:33.126Z,17.78
2018-08-19T01:29:42.702Z,17.72
2018-08-19T01:30:52.549Z,17.78
2018-08-19T01:32:02.669Z,17.79
2018-08-19T01:33:12.797Z,17.79
2018-08-19T01:34:22.920Z,17.75
2018-08-19T01:35:32.790Z,17.79
2018-08-19T01:36:42.092Z,17.79
2018-08-19T01:37:51.939Z,17.81
2018-08-19T01:39:01.788Z,17.77
2018-08-19T01:40:11.362Z,17.79
2018-08-19T01:41:21.484Z,17.81
2018-08-19T01:42:31.057Z,17.77
2018-08-19T01:43:40.633Z,17.77
2018-08-19T01:44:49.939Z,17.82
2018-08-19T01:46:00.048Z,17.77
2018-08-19T01:47:09.352Z,17.81
2018-08-19T01:48:19.191Z,17.77
2018-08-19T01:49:28.489Z,17.9
2018-08-19T01:50:38.065Z,17.79
2018-08-19T01:51:47.682Z,17.81
2018-08-19T01:52:56.723Z,17.96
2018-08-19T01:54:06.572Z,17.89
2018-08-19T01:55:16.681Z,17.9
2018-08-19T01:56:26.528Z,17.89
2018-08-19T01:57:36.371Z,17.86
2018-08-19T01:58:45.678Z,17.9
2018-08-19T01:59:55.521Z,17.95
2018-08-19T02:01:05.106Z,17.93
2018-08-19T02:02:14.411Z,17.92
2018-08-19T02:03:23.982Z,17.89
2018-08-19T02:04:33.884Z,17.86
2018-08-19T02:05:43.459Z,17.92
2018-08-19T02:06:52.764Z,17.9
2018-08-19T02:08:02.608Z,17.95
2018-08-19T02:09:12.450Z,17.86
2018-08-19T02:10:22.291Z,17.89
2018-08-19T02:11:31.600Z,17.87
2018-08-19T02:12:40.903Z,17.9
2018-08-19T02:13:50.477Z,17.87
2018-08-19T02:15:00.314Z,17.92
2018-08-19T02:16:09.888Z,17.82
2018-08-19T02:17:19.729Z,17.78
2018-08-19T02:18:29.575Z,17.82
2018-08-19T02:19:38.878Z,17.78
2018-08-19T02:20:48.353Z,17.82
2018-08-19T02:21:58.759Z,17.84
2018-08-19T02:23:08.608Z,17.79
2018-08-19T02:24:18.453Z,17.79
2018-08-19T02:25:28.294Z,17.77
2018-08-19T02:26:37.598Z,17.78
2018-08-19T02:27:47.708Z,17.74
2018-08-19T02:28:57.276Z,17.77
2018-08-19T02:30:06.313Z,17.75
2018-08-19T02:31:16.426Z,17.66
2018-08-19T02:32:26.545Z,17.78
2018-08-19T02:33:36.128Z,17.63
2018-08-19T02:34:44.896Z,17.77
2018-08-19T02:35:54.746Z,17.75
2018-08-19T02:37:04.590Z,17.66
2018-08-19T02:38:14.706Z,17.68
2018-08-19T02:39:24.293Z,17.63
2018-08-19T02:40:34.170Z,17.68
2018-08-19T02:41:44.013Z,17.55
2018-08-19T02:42:53.639Z,17.62
2018-08-19T02:44:03.480Z,17.51
2018-08-19T02:45:13.062Z,17.54
2018-08-19T02:46:22.903Z,17.59
2018-08-19T02:47:33.023Z,17.55
2018-08-19T02:48:42.595Z,17.49
2018-08-19T02:49:52.711Z,17.58
2018-08-19T02:51:02.558Z,17.58
2018-08-19T02:52:11.594Z,17.55
2018-08-19T02:53:21.173Z,17.58
2018-08-19T02:54:30.762Z,17.55
2018-08-19T02:55:40.350Z,17.58
2018-08-19T02:56:50.199Z,17.58
2018-08-19T02:57:59.502Z,17.52
2018-08-19T02:59:09.628Z,17.52
2018-08-19T03:00:19.472Z,17.56
2018-08-19T03:01:29.319Z,17.54
2018-08-19T03:02:39.186Z,17.58
2018-08-19T03:03:48.763Z,17.58
2018-08-19T03:04:58.613Z,17.72
2018-08-19T03:06:08.467Z,17.63
2018-08-19T03:07:18.040Z,17.63
2018-08-19T03:08:27.350Z,17.58
2018-08-19T03:09:37.200Z,17.68
2018-08-19T03:10:46.776Z,17.71
2018-08-19T03:11:56.349Z,17.66
2018-08-19T03:13:05.931Z,17.52
2018-08-19T03:14:15.777Z,17.63
2018-08-19T03:15:25.897Z,17.52
2018-08-19T03:16:35.473Z,17.56
2018-08-19T03:17:45.313Z,17.54
2018-08-19T03:18:55.153Z,17.64
2018-08-19T03:20:04.730Z,17.7
2018-08-19T03:21:14.590Z,17.7
2018-08-19T03:22:24.705Z,17.55
2018-08-19T03:23:34.287Z,17.66
2018-08-19T03:24:43.860Z,17.7
2018-08-19T03:25:53.701Z,17.7
2018-08-19T03:27:03.814Z,17.7
2018-08-19T03:28:13.397Z,17.71
2018-08-19T03:29:22.742Z,17.7
2018-08-19T03:30:32.055Z,17.64
2018-08-19T03:31:42.209Z,17.7
2018-08-19T03:32:52.078Z,17.59
2018-08-19T03:34:01.940Z,17.66
2018-08-19T03:35:11.522Z,17.71
2018-08-19T03:36:21.395Z,17.66
2018-08-19T03:37:31.253Z,17.68
2018-08-19T03:38:41.102Z,17.74
2018-08-19T03:39:50.675Z,17.72
2018-08-19T03:41:00.789Z,17.75
2018-08-19T03:42:10.633Z,17.74
2018-08-19T03:43:20.490Z,17.72
2018-08-19T03:44:30.338Z,17.75
2018-08-19T03:45:40.175Z,17.78
2018-08-19T03:46:50.289Z,17.64
2018-08-19T03:47:59.595Z,17.71
2018-08-19T03:49:09.175Z,17.72
2018-08-19T03:50:19.022Z,17.74
2018-08-19T03:51:28.597Z,17.7
2018-08-19T03:52:38.172Z,17.82
2018-08-19T03:53:47.747Z,17.82
2018-08-19T03:54:57.885Z,17.74
2018-08-19T03:56:07.468Z,17.77
2018-08-19T03:57:17.306Z,17.78
2018-08-19T03:58:26.617Z,17.78
2018-08-19T03:59:36.748Z,17.74
2018-08-19T04:00:46.599Z,17.74
2018-08-19T04:01:56.449Z,17.92
2018-08-19T04:03:06.027Z,17.96
2018-08-19T04:04:15.330Z,17.82
2018-08-19T04:05:25.180Z,17.86
2018-08-19T04:06:34.488Z,17.77
2018-08-19T04:07:44.064Z,17.78
2018-08-19T04:08:54.188Z,17.78
2018-08-19T04:10:03.811Z,17.77
2018-08-19T04:11:13.122Z,17.74
2018-08-19T04:12:22.968Z,17.72
2018-08-19T04:13:32.549Z,17.7
2018-08-19T04:14:42.386Z,17.77
2018-08-19T04:15:51.696Z,17.75
2018-08-19T04:17:01.822Z,17.81
2018-08-19T04:18:11.134Z,17.74
2018-08-19T04:19:19.897Z,17.78
2018-08-19T04:20:29.470Z,17.78
2018-08-19T04:21:39.045Z,17.78
2018-08-19T04:22:48.344Z,17.72
2018-08-19T04:23:57.652Z,17.72
2018-08-19T04:25:07.226Z,17.75
2018-08-19T04:26:16.530Z,17.75
2018-08-19T04:27:26.662Z,17.74
2018-08-19T04:28:36.503Z,17.75
2018-08-19T04:29:46.076Z,17.7
2018-08-19T04:30:55.651Z,17.62
2018-08-19T04:32:05.237Z,17.77
2018-08-19T04:33:14.810Z,17.75
2018-08-19T04:34:24.382Z,17.72
2018-08-19T04:35:34.229Z,17.75
2018-08-19T04:36:44.343Z,17.71
2018-08-19T04:37:54.184Z,17.72
2018-08-19T04:39:04.095Z,17.81
2018-08-19T04:40:14.219Z,17.75
2018-08-19T04:41:24.341Z,17.68
2018-08-19T04:42:33.927Z,17.63
2018-08-19T04:43:43.784Z,17.77
2018-08-19T04:44:53.380Z,17.7
2018-08-19T04:46:02.684Z,17.64
2018-08-19T04:47:12.260Z,17.74
2018-08-19T04:48:22.104Z,17.7
2018-08-19T04:49:31.948Z,17.75
2018-08-19T04:50:42.053Z,17.7
2018-08-19T04:51:52.167Z,17.68
2018-08-19T04:53:01.741Z,17.64
2018-08-19T04:54:11.587Z,17.72
2018-08-19T04:55:21.702Z,17.64
2018-08-19T04:56:31.564Z,17.75
2018-08-19T04:57:41.694Z,17.77
2018-08-19T04:58:51.000Z,17.79
2018-08-19T05:00:00.844Z,17.78
2018-08-19T05:01:10.966Z,17.9
2018-08-19T05:02:21.263Z,17.81
2018-08-19T05:03:31.071Z,17.84
2018-08-19T05:04:40.377Z,17.81
2018-08-19T05:05:49.965Z,17.81
2018-08-19T05:07:00.151Z,17.93
2018-08-19T05:08:10.526Z,17.9
2018-08-19T05:09:21.318Z,17.86
2018-08-19T05:10:31.161Z,17.86
2018-08-19T05:11:40.735Z,17.95
2018-08-19T05:12:49.776Z,17.89
2018-08-19T05:13:59.623Z,17.96
2018-08-19T05:15:09.191Z,17.97
2018-08-19T05:16:19.034Z,17.99
2018-08-19T05:17:28.614Z,18
2018-08-19T05:18:38.186Z,18
2018-08-19T05:19:48.036Z,17.97
2018-08-19T05:20:57.882Z,18
2018-08-19T05:22:07.464Z,17.97
2018-08-19T05:23:17.581Z,18.05
2018-08-19T05:24:27.157Z,17.92
2018-08-19T05:25:37.280Z,17.99
2018-08-19T05:26:46.582Z,17.89
2018-08-19T05:27:55.880Z,17.95
2018-08-19T05:29:05.730Z,17.97
2018-08-19T05:30:15.580Z,17.97
2018-08-19T05:31:25.227Z,17.96
2018-08-19T05:32:34.595Z,17.99
2018-08-19T05:33:44.437Z,17.99
2018-08-19T05:34:54.023Z,17.96
2018-08-19T05:36:03.326Z,17.99
2018-08-19T05:37:13.517Z,17.99
2018-08-19T05:38:23.640Z,18.03
2018-08-19T05:39:33.216Z,18.08
2018-08-19T05:40:43.342Z,18.03
2018-08-19T05:41:52.103Z,18.12
2018-08-19T05:43:01.458Z,18.11
2018-08-19T05:44:11.031Z,18.05
2018-08-19T05:45:20.884Z,18.18
2018-08-19T05:46:30.725Z,18.14
2018-08-19T05:47:40.570Z,18.11
2018-08-19T05:48:50.697Z,18.21
2018-08-19T05:50:00.272Z,18.12
2018-08-19T05:51:10.385Z,18.17
2018-08-19T05:52:20.516Z,18.2
2018-08-19T05:53:29.836Z,18.18
2018-08-19T05:54:39.957Z,18.15
2018-08-19T05:55:49.256Z,18.21
2018-08-19T05:56:58.564Z,18.17
2018-08-19T05:58:08.138Z,18.27
2018-08-19T05:59:18.259Z,18.26
2018-08-19T06:00:28.109Z,18.21
2018-08-19T06:01:38.236Z,18.07
2018-08-19T06:02:48.090Z,18.23
2018-08-19T06:03:57.941Z,18.21
2018-08-19T06:05:07.521Z,18.33
2018-08-19T06:06:17.365Z,18.2
2018-08-19T06:07:27.326Z,18.26
2018-08-19T06:08:37.610Z,18.27
2018-08-19T06:09:47.462Z,18.25
2018-08-19T06:10:57.580Z,18.32
2018-08-19T06:12:07.692Z,18.3
2018-08-19T06:13:17.266Z,18.35
2018-08-19T06:14:26.571Z,18.3
2018-08-19T06:15:36.140Z,18.26
2018-08-19T06:16:46.016Z,18.39
2018-08-19T06:17:55.370Z,18.45
2018-08-19T06:19:04.951Z,18.42
2018-08-19T06:20:14.537Z,18.45
2018-08-19T06:21:24.112Z,18.55
2018-08-19T06:22:33.691Z,18.37
2018-08-19T06:23:43.544Z,18.52
2018-08-19T06:24:53.125Z,18.41
2018-08-19T06:26:03.035Z,18.45
2018-08-19T06:27:12.877Z,18.55
2018-08-19T06:28:22.188Z,18.57
2018-08-19T06:29:31.498Z,18.6
2018-08-19T06:30:41.627Z,18.62
2018-08-19T06:31:51.208Z,18.7
2018-08-19T06:33:00.783Z,18.65
2018-08-19T06:34:10.087Z,18.65
2018-08-19T06:35:20.197Z,18.8
2018-08-19T06:36:29.948Z,18.76
2018-08-19T06:37:39.399Z,18.81
2018-08-19T06:38:49.514Z,18.78
2018-08-19T06:39:59.093Z,18.85
2018-08-19T06:41:09.276Z,18.81
2018-08-19T06:42:19.391Z,18.82
2018-08-19T06:43:29.113Z,18.82
2018-08-19T06:44:38.419Z,18.98
2018-08-19T06:45:47.726Z,18.81
2018-08-19T06:46:57.356Z,18.99
2018-08-19T06:48:07.203Z,18.94
2018-08-19T06:49:16.779Z,19.06
2018-08-19T06:50:26.091Z,19.07
2018-08-19T06:51:36.209Z,19.07
2018-08-19T06:52:45.785Z,19.08
2018-08-19T06:53:55.634Z,19.07
2018-08-19T06:55:05.214Z,19.11
2018-08-19T06:56:15.331Z,19.06
2018-08-19T06:57:24.636Z,19.13
2018-08-19T06:58:34.808Z,19.21
2018-08-19T06:59:44.653Z,19.22
2018-08-19T07:00:54.231Z,19.21
2018-08-19T07:02:04.077Z,19.19
2018-08-19T07:03:13.773Z,19.07
2018-08-19T07:04:24.158Z,19.13
2018-08-19T07:05:33.193Z,19.16
2018-08-19T07:06:43.046Z,19.21
2018-08-19T07:07:52.625Z,19.19
2018-08-19T07:09:02.757Z,19.23
2018-08-19T07:10:12.067Z,19.32
2018-08-19T07:11:21.639Z,19.37
2018-08-19T07:12:31.255Z,19.4
2018-08-19T07:13:41.621Z,19.4
2018-08-19T07:14:51.186Z,19.44
2018-08-19T07:16:01.090Z,19.48
2018-08-19T07:17:10.679Z,19.5
2018-08-19T07:18:20.523Z,19.54
2018-08-19T07:19:30.372Z,19.65
2018-08-19T07:20:40.221Z,19.62
2018-08-19T07:21:49.796Z,19.69
2018-08-19T07:22:59.097Z,19.65
2018-08-19T07:24:08.674Z,19.69
2018-08-19T07:25:17.706Z,19.71
2018-08-19T07:26:27.283Z,19.77
2018-08-19T07:27:37.452Z,19.84
2018-08-19T07:28:47.030Z,19.74
2018-08-19T07:29:57.014Z,19.76
2018-08-19T07:31:06.598Z,19.87
2018-08-19T07:32:16.161Z,19.86
2018-08-19T07:33:26.025Z,19.96
2018-08-19T07:34:35.335Z,19.95
2018-08-19T07:35:45.189Z,19.96
2018-08-19T07:36:54.882Z,20.03
2018-08-19T07:38:05.174Z,20.01
2018-08-19T07:39:15.352Z,20.08
2018-08-19T07:40:24.934Z,20.17
2018-08-19T07:41:34.849Z,20.1
2018-08-19T07:42:44.964Z,20.2
2018-08-19T07:43:54.052Z,20.23
2018-08-19T07:45:04.187Z,20.2
2018-08-19T07:46:13.497Z,20.2
2018-08-19T07:47:23.352Z,20.23
2018-08-19T07:48:33.211Z,20.31
2018-08-19T07:49:42.526Z,20.33
2018-08-19T07:50:51.849Z,20.32
2018-08-19T07:52:01.694Z,20.29
2018-08-19T07:53:11.263Z,20.42
2018-08-19T07:54:21.104Z,20.52
2018-08-19T07:55:30.159Z,20.36
2018-08-19T07:56:40.005Z,20.35
2018-08-19T07:57:49.590Z,20.39
2018-08-19T07:58:59.438Z,20.47
2018-08-19T08:00:09.287Z,20.48
2018-08-19T08:01:18.679Z,20.52
2018-08-19T08:02:28.662Z,20.52
2018-08-19T08:03:38.507Z,20.48
2018-08-19T08:04:48.356Z,20.51
2018-08-19T08:05:57.931Z,20.51
2018-08-19T08:07:07.787Z,20.54
2018-08-19T08:08:17.636Z,20.54
2018-08-19T08:09:27.783Z,20.57
2018-08-19T08:10:37.890Z,20.52
2018-08-19T08:11:48.012Z,20.58
2018-08-19T08:12:57.593Z,20.62
2018-08-19T08:14:06.906Z,20.7
2018-08-19T08:15:16.216Z,20.72
2018-08-19T08:16:25.793Z,20.64
2018-08-19T08:17:35.914Z,20.72
2018-08-19T08:18:45.763Z,20.73
2018-08-19T08:19:55.344Z,20.8
2018-08-19T08:21:05.334Z,20.82
2018-08-19T08:22:15.358Z,20.82
2018-08-19T08:23:25.208Z,20.85
2018-08-19T08:24:35.064Z,20.79
2018-08-19T08:25:44.376Z,20.84
2018-08-19T08:26:54.501Z,20.98
2018-08-19T08:28:03.812Z,20.89
2018-08-19T08:29:13.938Z,20.97
2018-08-19T08:30:23.589Z,20.97
2018-08-19T08:31:33.165Z,20.94
2018-08-19T08:32:42.197Z,21.03
2018-08-19T08:33:51.504Z,20.97
2018-08-19T08:35:01.625Z,20.99
2018-08-19T08:36:11.205Z,21.01
2018-08-19T08:37:21.102Z,20.99
2018-08-19T08:38:30.950Z,21.14
2018-08-19T08:39:40.528Z,21.12
2018-08-19T08:40:50.908Z,21.14
2018-08-19T08:42:00.758Z,21.24
2018-08-19T08:43:10.381Z,21.19
2018-08-19T08:44:19.689Z,21.14
2018-08-19T08:45:28.998Z,21.21
2018-08-19T08:46:38.307Z,21.28
2018-08-19T08:47:48.568Z,21.28
2018-08-19T08:48:58.334Z,21.38
2018-08-19T08:50:07.925Z,21.27
2018-08-19T08:51:17.511Z,21.38
2018-08-19T08:52:27.093Z,21.4
2018-08-19T08:53:37.219Z,21.4
2018-08-19T08:54:46.803Z,21.43
2018-08-19T08:55:56.379Z,21.44
2018-08-19T08:57:06.229Z,21.52
2018-08-19T08:58:16.076Z,21.46
2018-08-19T08:59:25.919Z,21.53
2018-08-19T09:00:35.507Z,21.49
2018-08-19T09:01:45.092Z,21.53
2018-08-19T09:02:54.154Z,21.62
2018-08-19T09:04:03.466Z,21.62
2018-08-19T09:05:13.051Z,21.67
2018-08-19T09:06:23.216Z,21.77
2018-08-19T09:07:33.062Z,21.8
2018-08-19T09:08:42.373Z,21.84
2018-08-19T09:09:51.950Z,21.8
2018-08-19T09:11:01.520Z,21.84
2018-08-19T09:12:11.099Z,21.98
2018-08-19T09:13:21.211Z,22.02
2018-08-19T09:14:30.798Z,22.03
2018-08-19T09:15:40.651Z,21.96
2018-08-19T09:16:50.226Z,21.96
2018-08-19T09:18:00.081Z,21.94
2018-08-19T09:19:09.398Z,21.91
2018-08-19T09:20:19.319Z,21.99
2018-08-19T09:21:29.165Z,21.92
2018-08-19T09:22:39.020Z,22.07
2018-08-19T09:23:48.863Z,22.02
2018-08-19T09:24:58.708Z,21.98
2018-08-19T09:26:07.755Z,22.06
2018-08-19T09:27:17.604Z,22.1
2018-08-19T09:28:27.449Z,22.12
2018-08-19T09:29:37.296Z,22.1
2018-08-19T09:30:47.418Z,22.06
2018-08-19T09:31:57.265Z,22
2018-08-19T09:33:07.435Z,22.1
2018-08-19T09:34:17.285Z,22.27
2018-08-19T09:35:27.401Z,22.31
2018-08-19T09:36:37.258Z,22.35
2018-08-19T09:37:46.567Z,22.37
2018-08-19T09:38:56.145Z,22.42
2018-08-19T09:40:06.262Z,22.57
2018-08-19T09:41:16.382Z,22.7
2018-08-19T09:42:25.690Z,22.68
2018-08-19T09:43:35.813Z,22.75
2018-08-19T09:44:45.392Z,22.7
2018-08-19T09:45:54.968Z,22.85
2018-08-19T09:47:04.815Z,22.85
2018-08-19T09:48:14.670Z,22.77
2018-08-19T09:49:23.975Z,22.75
2018-08-19T09:50:33.282Z,22.73
2018-08-19T09:51:43.421Z,22.79
2018-08-19T09:52:53.260Z,22.85
2018-08-19T09:54:03.109Z,22.82
2018-08-19T09:55:12.732Z,22.75
2018-08-19T09:56:22.314Z,22.83
2018-08-19T09:57:32.228Z,22.7
2018-08-19T09:58:42.234Z,22.64
2018-08-19T09:59:52.365Z,22.77
2018-08-19T10:01:02.212Z,22.8
2018-08-19T10:02:11.517Z,22.82
2018-08-19T10:03:20.825Z,22.83
2018-08-19T10:04:30.678Z,22.92
2018-08-19T10:05:40.815Z,22.94
2018-08-19T10:06:50.665Z,23
2018-08-19T10:08:00.129Z,22.9
2018-08-19T10:09:09.435Z,22.77
2018-08-19T10:10:19.283Z,22.67
2018-08-19T10:11:28.868Z,22.58
2018-08-19T10:12:38.457Z,22.55
2018-08-19T10:13:48.429Z,22.55
2018-08-19T10:14:58.276Z,22.55
2018-08-19T10:16:08.124Z,22.52
2018-08-19T10:17:18.250Z,22.52
2018-08-19T10:18:27.292Z,22.43
2018-08-19T10:19:36.336Z,22.46
2018-08-19T10:20:46.451Z,22.45
2018-08-19T10:21:56.302Z,22.54
2018-08-19T10:23:06.425Z,22.42
2018-08-19T10:24:16.561Z,22.45
2018-08-19T10:25:26.411Z,22.47
2018-08-19T10:26:36.088Z,22.51
2018-08-19T10:27:45.324Z,22.52
2018-08-19T10:28:54.362Z,22.61
2018-08-19T10:30:03.946Z,22.64
2018-08-19T10:31:13.628Z,22.65
2018-08-19T10:32:23.566Z,22.62
2018-08-19T10:33:33.470Z,22.64
2018-08-19T10:34:43.321Z,22.62
2018-08-19T10:35:53.445Z,22.72
2018-08-19T10:37:03.289Z,22.83
2018-08-19T10:38:12.869Z,22.77
2018-08-19T10:39:22.715Z,22.85
2018-08-19T10:40:32.847Z,22.92
2018-08-19T10:41:42.958Z,23.04
2018-08-19T10:42:52.540Z,23.12
2018-08-19T10:44:02.120Z,23.27
2018-08-19T10:45:11.472Z,23.36
2018-08-19T10:46:22.009Z,23.33
2018-08-19T10:47:32.158Z,23.42
2018-08-19T10:48:42.018Z,23.43
2018-08-19T10:49:52.130Z,23.58
2018-08-19T10:51:01.990Z,23.61
2018-08-19T10:52:11.568Z,23.61
2018-08-19T10:53:21.277Z,23.65
2018-08-19T10:54:31.401Z,23.53
2018-08-19T10:55:40.984Z,23.58
2018-08-19T10:56:51.150Z,23.65
2018-08-19T10:58:01.005Z,23.58
2018-08-19T10:59:10.856Z,23.58
2018-08-19T11:00:20.434Z,23.6
2018-08-19T11:01:29.740Z,23.55
2018-08-19T11:02:39.909Z,23.63
2018-08-19T11:03:49.491Z,23.68
2018-08-19T11:04:59.351Z,23.75
2018-08-19T11:06:08.928Z,23.76
2018-08-19T11:07:19.058Z,23.78
2018-08-19T11:08:28.412Z,23.9
2018-08-19T11:09:38.526Z,23.88
2018-08-19T11:10:48.103Z,23.85
2018-08-19T11:11:57.954Z,23.84
2018-08-19T11:13:07.803Z,23.8
2018-08-19T11:14:17.921Z,23.87
2018-08-19T11:15:27.783Z,23.9
2018-08-19T11:16:37.091Z,23.91
2018-08-19T11:17:46.935Z,23.9
2018-08-19T11:18:56.793Z,23.94
2018-08-19T11:20:06.911Z,23.95
2018-08-19T11:21:16.775Z,24.02
2018-08-19T11:22:26.623Z,24.08
2018-08-19T11:23:36.478Z,24.16
2018-08-19T11:24:46.600Z,24.16
2018-08-19T11:25:55.905Z,24.16
2018-08-19T11:27:05.494Z,24.18
2018-08-19T11:28:15.068Z,24.35
2018-08-19T11:29:24.642Z,24.39
2018-08-19T11:30:34.219Z,24.39
2018-08-19T11:31:43.802Z,24.37
2018-08-19T11:32:53.650Z,24.42
2018-08-19T11:34:03.798Z,24.42
2018-08-19T11:35:13.312Z,24.35
2018-08-19T11:36:22.889Z,24.43
2018-08-19T11:37:32.734Z,24.58
2018-08-19T11:38:42.313Z,24.62
2018-08-19T11:39:51.899Z,24.76
2018-08-19T11:41:01.743Z,24.81
2018-08-19T11:42:11.598Z,24.84
2018-08-19T11:43:21.823Z,24.88
2018-08-19T11:44:32.088Z,24.88
2018-08-19T11:45:41.665Z,24.87
2018-08-19T11:46:50.973Z,24.87
2018-08-19T11:48:00.818Z,24.87
2018-08-19T11:49:10.934Z,24.85
2018-08-19T11:50:20.792Z,24.85
2018-08-19T11:51:30.639Z,25.08
2018-08-19T11:52:40.756Z,25.09
2018-08-19T11:53:50.063Z,25
2018-08-19T11:55:00.181Z,25.08
2018-08-19T11:56:09.490Z,25.14
2018-08-19T11:57:19.341Z,25.06
2018-08-19T11:58:29.193Z,25.06
2018-08-19T11:59:39.321Z,25.17
2018-08-19T12:00:49.186Z,25.17
2018-08-19T12:01:59.092Z,25.21
2018-08-19T12:03:09.412Z,25.27
2018-08-19T12:04:18.451Z,25.25
2018-08-19T12:05:28.031Z,25.38
2018-08-19T12:06:37.888Z,25.46
2018-08-19T12:07:48.012Z,25.47
2018-08-19T12:08:57.869Z,25.39
2018-08-19T12:10:07.724Z,25.46
2018-08-19T12:11:17.304Z,25.39
2018-08-19T12:12:26.886Z,25.39
2018-08-19T12:13:35.928Z,25.38
2018-08-19T12:14:45.531Z,25.42
2018-08-19T12:15:55.381Z,25.54
2018-08-19T12:17:05.518Z,25.64
2018-08-19T12:18:15.189Z,25.79
2018-08-19T12:19:25.035Z,25.83
2018-08-19T12:20:34.618Z,25.92
2018-08-19T12:21:43.934Z,25.98
2018-08-19T12:22:53.523Z,25.95
2018-08-19T12:24:03.106Z,25.92
2018-08-19T12:25:12.682Z,26.02
2018-08-19T12:26:22.272Z,26.01
2018-08-19T12:27:32.592Z,26.07
2018-08-19T12:28:42.943Z,26.21
2018-08-19T12:29:52.526Z,26.28
2018-08-19T12:31:02.374Z,26.37
2018-08-19T12:32:12.227Z,26.29
2018-08-19T12:33:22.349Z,26.32
2018-08-19T12:34:31.934Z,26.51
2018-08-19T12:35:41.787Z,26.51
2018-08-19T12:36:51.424Z,26.54
2018-08-19T12:38:01.039Z,26.62
2018-08-19T12:39:10.893Z,26.67
2018-08-19T12:40:20.758Z,26.5
2018-08-19T12:41:30.608Z,26.48
2018-08-19T12:42:40.736Z,26.48
2018-08-19T12:43:50.586Z,26.48
2018-08-19T12:45:00.219Z,26.45
2018-08-19T12:46:09.537Z,26.45
2018-08-19T12:47:19.668Z,26.18
2018-08-19T12:48:29.262Z,26.43
2018-08-19T12:49:39.119Z,26.33
2018-08-19T12:50:48.435Z,26.5
2018-08-19T12:51:58.021Z,26.62
2018-08-19T12:53:07.665Z,26.66
2018-08-19T12:54:17.523Z,26.54
2018-08-19T12:55:27.381Z,26.54
2018-08-19T12:56:37.515Z,26.62
2018-08-19T12:57:47.102Z,26.75
2018-08-19T12:58:57.229Z,26.81
2018-08-19T13:00:07.399Z,26.77
2018-08-19T13:01:16.992Z,26.82
2018-08-19T13:02:26.853Z,26.77
2018-08-19T13:03:36.172Z,26.8
2018-08-19T13:04:46.288Z,26.8
2018-08-19T13:05:55.337Z,26.77
2018-08-19T13:07:04.924Z,26.85
2018-08-19T13:08:14.973Z,26.92
2018-08-19T13:09:24.824Z,26.85
2018-08-19T13:10:34.679Z,26.92
2018-08-19T13:11:44.264Z,26.89
2018-08-19T13:12:53.869Z,26.94
2018-08-19T13:14:03.726Z,27.02
2018-08-19T13:15:13.043Z,26.99
2018-08-19T13:16:23.158Z,27.1
2018-08-19T13:17:32.736Z,27.17
2018-08-19T13:18:42.047Z,27.06
2018-08-19T13:19:51.639Z,27.02
2018-08-19T13:21:01.224Z,27.09
2018-08-19T13:22:11.073Z,27.13
2018-08-19T13:23:20.878Z,27.13
2018-08-19T13:24:31.081Z,27.13
2018-08-19T13:25:40.670Z,27.17
2018-08-19T13:26:50.798Z,27.19
2018-08-19T13:28:00.383Z,27.37
2018-08-19T13:29:10.235Z,27.37
2018-08-19T13:30:19.817Z,27.63
2018-08-19T13:31:29.670Z,27.81
2018-08-19T13:32:39.250Z,27.59
2018-08-19T13:33:49.107Z,27.46
2018-08-19T13:34:58.153Z,27.43
2018-08-19T13:36:08.268Z,27.6
2018-08-19T13:37:17.580Z,27.4
2018-08-19T13:38:27.337Z,27.18
2018-08-19T13:39:37.463Z,27.09
2018-08-19T13:40:47.342Z,27.34
2018-08-19T13:41:56.924Z,27.63
2018-08-19T13:43:06.509Z,27.97
2018-08-19T13:44:16.633Z,28.06
2018-08-19T13:45:27.135Z,28.25
2018-08-19T13:46:37.720Z,28.4
2018-08-19T13:47:47.029Z,28.44
2018-08-19T13:48:56.886Z,28.41
2018-08-19T13:50:06.199Z,28.48
2018-08-19T13:51:16.327Z,28.58
2018-08-19T13:52:26.455Z,28.73
2018-08-19T13:53:35.766Z,28.78
2018-08-19T13:54:45.362Z,29.04
2018-08-19T13:55:54.672Z,29.05
2018-08-19T13:57:04.271Z,29.27
2018-08-19T13:58:13.967Z,29.12
2018-08-19T13:59:23.287Z,29.26
2018-08-19T14:00:32.876Z,29.26
2018-08-19T14:01:42.465Z,29.53
2018-08-19T14:02:52.081Z,29.68
2018-08-19T14:04:01.669Z,29.39
2018-08-19T14:05:11.030Z,29.26
2018-08-19T14:06:21.165Z,29.04
2018-08-19T14:07:30.760Z,28.96
2018-08-19T14:08:40.080Z,29.24
2018-08-19T14:09:49.945Z,29.58
2018-08-19T14:10:59.532Z,29.67
2018-08-19T14:12:09.464Z,29.64
2018-08-19T14:13:18.812Z,29.78
2018-08-19T14:14:28.683Z,30.02
2018-08-19T14:15:38.546Z,30.16
2018-08-19T14:16:48.138Z,30.26
2018-08-19T14:17:58.000Z,30.24
2018-08-19T14:19:07.325Z,29.8
2018-08-19T14:20:16.920Z,29.92
2018-08-19T14:21:26.785Z,29.94
2018-08-19T14:22:36.388Z,29.82
2018-08-19T14:23:45.982Z,29.98
2018-08-19T14:24:55.308Z,30.16
2018-08-19T14:26:05.174Z,30.19
2018-08-19T14:27:15.146Z,30.16
2018-08-19T14:28:24.474Z,30.45
2018-08-19T14:29:34.067Z,30.35
2018-08-19T14:30:43.960Z,30.49
2018-08-19T14:31:54.099Z,30.67
2018-08-19T14:33:03.967Z,30.37
2018-08-19T14:34:13.569Z,30.51
2018-08-19T14:35:23.166Z,30.89
2018-08-19T14:36:33.026Z,30.86
2018-08-19T14:37:42.359Z,31.07
2018-08-19T14:38:51.947Z,30.99
2018-08-19T14:40:01.708Z,31.02
2018-08-19T14:41:12.212Z,30.8
2018-08-19T14:42:22.346Z,31.04
2018-08-19T14:43:32.207Z,30.99
2018-08-19T14:44:41.805Z,30.86
2018-08-19T14:45:51.123Z,30.88
2018-08-19T14:47:01.038Z,31.06
2018-08-19T14:48:11.174Z,30.97
2018-08-19T14:49:20.500Z,31.01
2018-08-19T14:50:29.825Z,30.99
2018-08-19T14:51:40.033Z,31.07
2018-08-19T14:52:49.083Z,30.88
2018-08-19T14:53:59.022Z,30.79
2018-08-19T14:55:08.893Z,30.88
2018-08-19T14:56:18.779Z,30.86
2018-08-19T14:57:28.647Z,30.95
2018-08-19T14:58:38.787Z,30.98
2018-08-19T14:59:48.648Z,31.09
2018-08-19T15:00:58.249Z,30.98